createdAt,value
2022-11-17T00:00:42.139Z,8.30
2022-11-17T00:03:16.289Z,8.30
2022-11-17T00:05:44.611Z,8.30
2022-11-17T00:08:12.370Z,8.40
2022-11-17T00:10:39.356Z,8.40
2022-11-17T00:13:24.974Z,8.40
2022-11-17T00:15:52.039Z,8.40
2022-11-17T00:18:37.714Z,8.40
2022-11-17T00:21:21.456Z,8.40
2022-11-17T00:23:50.573Z,8.40
2022-11-17T00:26:21.069Z,8.40
2022-11-17T00:28:55.890Z,8.40
2022-11-17T00:31:43.165Z,8.50
2022-11-17T00:34:23.031Z,8.40
2022-11-17T00:36:53.176Z,8.40
2022-11-17T00:39:24.539Z,8.40
2022-11-17T00:41:51.567Z,8.40
2022-11-17T00:44:18.843Z,8.40
2022-11-17T00:46:45.857Z,8.40
2022-11-17T00:49:14.488Z,8.40
2022-11-17T00:51:42.223Z,8.40
2022-11-17T00:54:12.550Z,8.40
2022-11-17T00:56:39.982Z,8.50
2022-11-17T00:59:07.018Z,8.50
2022-11-17T01:01:34.120Z,8.50
2022-11-17T01:04:05.387Z,8.50
2022-11-17T01:06:35.585Z,8.50
2022-11-17T01:09:06.790Z,8.50
2022-11-17T01:11:34.406Z,8.50
2022-11-17T01:14:01.829Z,8.50
2022-11-17T01:16:31.218Z,8.50
2022-11-17T01:19:01.957Z,8.50
2022-11-17T01:21:30.850Z,8.50
2022-11-17T01:24:00.941Z,8.50
2022-11-17T01:26:32.010Z,8.40
2022-11-17T01:29:00.935Z,8.40
2022-11-17T01:31:38.103Z,8.50
2022-11-17T01:34:06.304Z,8.50
2022-11-17T01:36:59.755Z,8.50
2022-11-17T01:39:28.749Z,8.50
2022-11-17T01:41:56.036Z,8.50
2022-11-17T01:44:41.634Z,8.50
2022-11-17T01:47:36.721Z,8.50
2022-11-17T01:50:16.847Z,8.50
2022-11-17T01:52:45.083Z,8.50
2022-11-17T01:55:12.616Z,8.50
2022-11-17T01:57:46.198Z,8.50
2022-11-17T02:00:14.230Z,8.50
2022-11-17T02:02:42.595Z,8.50
2022-11-17T02:05:48.103Z,8.50
2022-11-17T02:08:16.354Z,8.50
2022-11-17T02:10:50.225Z,8.50
2022-11-17T02:13:20.911Z,8.50
2022-11-17T02:15:48.130Z,8.50
2022-11-17T02:18:17.414Z,8.50
2022-11-17T02:21:35.402Z,8.50
2022-11-17T02:24:31.000Z,8.50
2022-11-17T02:27:31.742Z,8.40
2022-11-17T02:30:05.864Z,8.50
2022-11-17T02:33:02.961Z,8.40
2022-11-17T02:36:03.771Z,8.40
2022-11-17T02:38:42.958Z,8.40
2022-11-17T02:41:27.173Z,8.30
2022-11-17T02:44:23.046Z,8.30
2022-11-17T02:47:11.116Z,8.30
2022-11-17T02:49:57.229Z,8.30
2022-11-17T02:52:25.421Z,8.20
2022-11-17T02:54:52.488Z,8.20
2022-11-17T02:57:30.739Z,8.20
2022-11-17T03:00:02.134Z,8.20
2022-11-17T03:03:05.527Z,8.20
2022-11-17T03:06:05.066Z,8.20
2022-11-17T03:08:53.865Z,8.10
2022-11-17T03:11:47.686Z,8.10
2022-11-17T03:14:46.985Z,8.10
2022-11-17T03:17:19.648Z,8.10
2022-11-17T03:20:15.125Z,8.10
2022-11-17T03:23:29.143Z,8.10
2022-11-17T03:25:58.978Z,8.10
2022-11-17T03:28:30.685Z,8.10
2022-11-17T03:30:59.678Z,8.00
2022-11-17T03:33:28.973Z,8.00
2022-11-17T03:36:13.583Z,8.00
2022-11-17T03:38:53.700Z,8.00
2022-11-17T03:41:22.671Z,8.00
2022-11-17T03:43:51.942Z,8.00
2022-11-17T03:46:21.315Z,8.00
2022-11-17T03:48:58.433Z,8.00
2022-11-17T03:51:30.848Z,7.90
2022-11-17T03:53:57.971Z,8.00
2022-11-17T03:56:59.413Z,7.90
2022-11-17T04:00:04.191Z,8.00
2022-11-17T04:02:45.767Z,7.90
2022-11-17T04:05:17.348Z,7.90
2022-11-17T04:07:46.896Z,7.90
2022-11-17T04:10:20.739Z,7.90
2022-11-17T04:13:07.750Z,7.90
2022-11-17T04:15:53.812Z,7.90
2022-11-17T04:18:22.181Z,7.90
2022-11-17T04:20:56.067Z,7.90
2022-11-17T04:23:24.649Z,7.90
2022-11-17T04:26:14.855Z,7.90
2022-11-17T04:28:49.875Z,7.90
2022-11-17T04:31:25.535Z,7.90
2022-11-17T04:34:01.690Z,7.90
2022-11-17T04:36:44.673Z,7.80
2022-11-17T04:39:16.102Z,7.90
2022-11-17T04:42:03.399Z,7.80
2022-11-17T04:44:32.163Z,7.80
2022-11-17T04:47:02.005Z,7.80
2022-11-17T04:49:29.347Z,7.80
2022-11-17T04:51:56.391Z,7.80
2022-11-17T04:54:24.949Z,7.70
2022-11-17T04:56:53.685Z,7.70
2022-11-17T04:59:21.252Z,7.70
2022-11-17T05:01:48.504Z,7.70
2022-11-17T05:04:37.293Z,7.70
2022-11-17T05:07:05.100Z,7.70
2022-11-17T05:09:32.682Z,7.70
2022-11-17T05:12:18.692Z,7.70
2022-11-17T05:14:47.719Z,7.70
2022-11-17T05:17:14.857Z,7.70
2022-11-17T05:19:44.744Z,7.60
2022-11-17T05:22:33.714Z,7.60
2022-11-17T05:25:00.943Z,7.60
2022-11-17T05:27:28.260Z,7.60
2022-11-17T05:29:55.341Z,7.60
2022-11-17T05:32:22.435Z,7.50
2022-11-17T05:34:49.729Z,7.50
2022-11-17T05:37:16.836Z,7.50
2022-11-17T05:39:43.835Z,7.40
2022-11-17T05:42:10.894Z,7.40
2022-11-17T05:44:38.086Z,7.40
2022-11-17T05:47:05.134Z,7.40
2022-11-17T05:49:32.290Z,7.40
2022-11-17T05:51:59.323Z,7.30
2022-11-17T05:54:27.021Z,7.30
2022-11-17T05:57:26.164Z,7.30
2022-11-17T06:00:04.475Z,7.30
2022-11-17T06:02:50.704Z,7.30
2022-11-17T06:05:20.406Z,7.20
2022-11-17T06:07:48.285Z,7.20
2022-11-17T06:10:15.543Z,7.20
2022-11-17T06:12:42.999Z,7.20
2022-11-17T06:15:10.379Z,7.20
2022-11-17T06:17:50.811Z,7.10
2022-11-17T06:20:28.153Z,7.10
2022-11-17T06:22:58.032Z,7.10
2022-11-17T06:25:25.068Z,7.10
2022-11-17T06:27:53.310Z,7.10
2022-11-17T06:30:20.568Z,7.00
2022-11-17T06:32:49.968Z,7.00
2022-11-17T06:35:17.679Z,7.00
2022-11-17T06:37:44.727Z,7.00
2022-11-17T06:40:13.379Z,7.00
2022-11-17T06:42:58.869Z,7.00
2022-11-17T06:45:26.273Z,7.00
2022-11-17T06:47:54.327Z,7.00
2022-11-17T06:50:21.539Z,7.00
2022-11-17T06:52:48.623Z,7.00
2022-11-17T06:55:15.845Z,7.00
2022-11-17T06:57:42.995Z,7.00
2022-11-17T07:00:11.202Z,7.00
2022-11-17T07:02:38.336Z,7.00
2022-11-17T07:05:05.838Z,7.00
2022-11-17T07:07:33.067Z,6.90
2022-11-17T07:10:00.259Z,6.90
2022-11-17T07:12:27.386Z,7.00
2022-11-17T07:14:54.476Z,7.00
2022-11-17T07:17:21.566Z,7.00
2022-11-17T07:19:48.607Z,7.00
2022-11-17T07:22:15.797Z,7.00
2022-11-17T07:24:42.862Z,7.00
2022-11-17T07:27:09.956Z,7.00
2022-11-17T07:29:37.133Z,7.00
2022-11-17T07:32:04.339Z,7.00
2022-11-17T07:34:31.404Z,7.00
2022-11-17T07:36:58.776Z,7.00
2022-11-17T07:39:25.865Z,7.00
2022-11-17T07:41:52.923Z,7.00
2022-11-17T07:44:19.941Z,7.00
2022-11-17T07:46:47.104Z,7.00
2022-11-17T07:49:14.252Z,7.00
2022-11-17T07:51:41.301Z,7.00
2022-11-17T07:54:08.525Z,7.10
2022-11-17T07:56:35.654Z,7.10
2022-11-17T07:59:02.762Z,7.00
2022-11-17T08:01:30.199Z,7.00
2022-11-17T08:03:58.514Z,7.00
2022-11-17T08:06:25.626Z,7.00
2022-11-17T08:08:53.667Z,7.00
2022-11-17T08:11:21.322Z,7.00
2022-11-17T08:13:50.118Z,7.00
2022-11-17T08:16:17.284Z,7.00
2022-11-17T08:18:50.560Z,7.00
2022-11-17T08:21:19.427Z,7.00
2022-11-17T08:23:52.417Z,7.00
2022-11-17T08:26:25.012Z,7.00
2022-11-17T08:28:56.861Z,7.00
2022-11-17T08:31:25.554Z,7.00
2022-11-17T08:33:52.672Z,7.00
2022-11-17T08:36:19.830Z,7.00
2022-11-17T08:38:46.981Z,7.00
2022-11-17T08:41:14.195Z,7.00
2022-11-17T08:43:41.283Z,7.10
2022-11-17T08:46:12.947Z,7.00
2022-11-17T08:48:40.508Z,7.10
2022-11-17T08:51:09.220Z,7.10
2022-11-17T08:53:36.575Z,7.00
2022-11-17T08:56:08.810Z,7.00
2022-11-17T08:58:40.610Z,7.10
2022-11-17T09:01:17.041Z,7.10
2022-11-17T09:03:46.422Z,7.10
2022-11-17T09:06:15.828Z,7.10
2022-11-17T09:08:46.271Z,7.10
2022-11-17T09:11:14.666Z,7.10
2022-11-17T09:13:42.272Z,7.10
2022-11-17T09:16:11.834Z,7.10
2022-11-17T09:18:41.122Z,7.10
2022-11-17T09:21:15.566Z,7.10
2022-11-17T09:23:43.179Z,7.20
2022-11-17T09:26:13.962Z,7.20
2022-11-17T09:28:42.030Z,7.20
2022-11-17T09:31:21.464Z,7.20
2022-11-17T09:33:48.719Z,7.20
2022-11-17T09:36:17.099Z,7.20
2022-11-17T09:38:44.701Z,7.20
2022-11-17T09:41:21.240Z,7.30
2022-11-17T09:44:15.409Z,7.30
2022-11-17T09:47:13.000Z,7.30
2022-11-17T09:50:20.179Z,7.30
2022-11-17T09:53:16.758Z,7.30
2022-11-17T09:55:49.744Z,7.30
2022-11-17T09:58:31.680Z,7.30
2022-11-17T10:00:59.222Z,7.30
2022-11-17T10:03:43.695Z,7.40
2022-11-17T10:06:18.347Z,7.40
2022-11-17T10:09:29.650Z,7.40
2022-11-17T10:12:18.309Z,7.40
2022-11-17T10:14:49.147Z,7.40
2022-11-17T10:17:18.377Z,7.50
2022-11-17T10:19:45.736Z,7.50
2022-11-17T10:22:39.897Z,7.40
2022-11-17T10:25:44.664Z,7.40
2022-11-17T10:28:31.238Z,7.40
2022-11-17T10:31:01.039Z,7.50
2022-11-17T10:33:44.537Z,7.50
2022-11-17T10:36:27.113Z,7.50
2022-11-17T10:38:57.464Z,7.50
2022-11-17T10:41:39.518Z,7.50
2022-11-17T10:44:24.047Z,7.50
2022-11-17T10:47:01.641Z,7.60
2022-11-17T10:49:40.457Z,7.70
2022-11-17T10:52:18.592Z,7.80
2022-11-17T10:54:46.752Z,7.80
2022-11-17T10:57:20.561Z,7.80
2022-11-17T10:59:57.684Z,7.80
2022-11-17T11:02:37.525Z,7.80
2022-11-17T11:05:11.781Z,7.80
2022-11-17T11:07:40.687Z,7.80
2022-11-17T11:10:34.346Z,7.80
2022-11-17T11:13:26.123Z,7.80
2022-11-17T11:15:53.610Z,7.80
2022-11-17T11:18:22.072Z,7.80
2022-11-17T11:20:56.941Z,7.80
2022-11-17T11:23:48.874Z,7.80
2022-11-17T11:26:58.816Z,7.90
2022-11-17T11:29:51.074Z,7.90
2022-11-17T11:32:51.524Z,7.80
2022-11-17T11:35:39.084Z,7.90
2022-11-17T11:38:24.515Z,7.90
2022-11-17T11:41:32.944Z,7.90
2022-11-17T11:44:24.573Z,7.90
2022-11-17T11:47:03.172Z,8.00
2022-11-17T11:49:39.745Z,8.00
2022-11-17T11:52:19.409Z,8.10
2022-11-17T11:54:56.508Z,8.10
2022-11-17T11:57:36.484Z,8.10
2022-11-17T12:00:14.760Z,8.10
2022-11-17T12:03:35.832Z,8.10
2022-11-17T12:06:33.641Z,8.10
2022-11-17T12:09:21.834Z,8.20
2022-11-17T12:12:02.035Z,8.30
2022-11-17T12:14:32.697Z,8.40
2022-11-17T12:17:23.439Z,8.40
2022-11-17T12:19:54.082Z,8.50
2022-11-17T12:22:30.487Z,8.50
2022-11-17T12:25:14.175Z,8.70
2022-11-17T12:27:43.758Z,8.70
2022-11-17T12:30:36.693Z,8.80
2022-11-17T12:33:08.957Z,8.90
2022-11-17T12:35:39.432Z,9.00
2022-11-17T12:38:16.554Z,9.00
2022-11-17T12:40:53.994Z,9.10
2022-11-17T12:43:28.167Z,9.10
2022-11-17T12:46:14.512Z,9.10
2022-11-17T12:49:03.276Z,9.20
2022-11-17T12:51:55.856Z,9.20
2022-11-17T12:54:41.221Z,9.30
2022-11-17T12:57:20.363Z,9.40
2022-11-17T13:00:07.573Z,9.40
2022-11-17T13:02:56.633Z,9.40
2022-11-17T13:05:28.659Z,9.50
2022-11-17T13:08:13.935Z,9.50
2022-11-17T13:10:41.785Z,9.60
2022-11-17T13:13:24.081Z,9.60
2022-11-17T13:16:01.579Z,9.60
2022-11-17T13:18:41.779Z,9.60
2022-11-17T13:21:29.959Z,9.70
2022-11-17T13:24:00.279Z,9.70
2022-11-17T13:26:38.193Z,9.70
2022-11-17T13:29:13.388Z,9.70
2022-11-17T13:31:41.169Z,9.70
2022-11-17T13:34:14.525Z,9.70
2022-11-17T13:36:58.516Z,9.70
2022-11-17T13:39:27.898Z,9.70
2022-11-17T13:41:58.905Z,9.80
2022-11-17T13:44:28.460Z,9.80
2022-11-17T13:46:56.181Z,9.80
2022-11-17T13:49:39.591Z,9.80
2022-11-17T13:52:38.027Z,9.80
2022-11-17T13:55:18.220Z,9.70
2022-11-17T13:58:08.899Z,9.70
2022-11-17T14:00:36.219Z,9.70
2022-11-17T14:03:37.219Z,9.70
2022-11-17T14:06:10.606Z,9.70
2022-11-17T14:08:40.852Z,9.60
2022-11-17T14:11:16.719Z,9.60
2022-11-17T14:13:58.793Z,9.60
2022-11-17T14:16:36.235Z,9.60
2022-11-17T14:19:17.163Z,9.60
2022-11-17T14:22:08.949Z,9.50
2022-11-17T14:24:37.255Z,9.50
2022-11-17T14:27:15.406Z,9.50
2022-11-17T14:29:42.620Z,9.50
2022-11-17T14:32:09.653Z,9.50
2022-11-17T14:34:36.687Z,9.40
2022-11-17T14:37:07.289Z,9.40
2022-11-17T14:39:37.469Z,9.40
2022-11-17T14:42:04.677Z,9.40
2022-11-17T14:44:31.997Z,9.40
2022-11-17T14:46:59.049Z,9.40
2022-11-17T14:49:26.108Z,9.40
2022-11-17T14:51:55.413Z,9.40
2022-11-17T14:54:22.790Z,9.40
2022-11-17T14:56:49.916Z,9.40
2022-11-17T14:59:17.427Z,9.40
2022-11-17T15:01:44.807Z,9.40
2022-11-17T15:04:48.881Z,9.40
2022-11-17T15:07:05.549Z,9.40
2022-11-17T15:09:32.918Z,9.40
2022-11-17T15:12:00.041Z,9.40
2022-11-17T15:14:27.262Z,9.40
2022-11-17T15:16:54.322Z,9.30
2022-11-17T15:19:21.691Z,9.30
2022-11-17T15:21:48.751Z,9.30
2022-11-17T15:24:15.883Z,9.30
2022-11-17T15:26:43.327Z,9.30
2022-11-17T15:29:17.434Z,9.30
2022-11-17T15:31:44.911Z,9.30
2022-11-17T15:34:17.122Z,9.30
2022-11-17T15:36:48.129Z,9.20
2022-11-17T15:39:15.724Z,9.20
2022-11-17T15:41:43.286Z,9.20
2022-11-17T15:44:10.693Z,9.20
2022-11-17T15:46:39.641Z,9.20
2022-11-17T15:49:10.047Z,9.20
2022-11-17T15:51:37.397Z,9.20
2022-11-17T15:54:04.681Z,9.20
2022-11-17T15:56:39.130Z,9.30
2022-11-17T15:59:06.758Z,9.30
2022-11-17T16:01:37.222Z,9.30
2022-11-17T16:04:13.132Z,9.30
2022-11-17T16:06:42.760Z,9.30
2022-11-17T16:09:11.868Z,9.30
2022-11-17T16:11:39.750Z,9.30
2022-11-17T16:14:07.095Z,9.30
2022-11-17T16:16:37.566Z,9.30
2022-11-17T16:19:06.387Z,9.20
2022-11-17T16:21:33.687Z,9.20
2022-11-17T16:24:02.096Z,9.20
2022-11-17T16:26:30.781Z,9.10
2022-11-17T16:29:04.689Z,9.10
2022-11-17T16:31:35.538Z,9.10
2022-11-17T16:34:14.185Z,9.10
2022-11-17T16:36:43.403Z,9.10
2022-11-17T16:39:17.023Z,9.10
2022-11-17T16:41:45.725Z,9.10
2022-11-17T16:44:16.653Z,9.10
2022-11-17T16:46:48.598Z,9.10
2022-11-17T16:49:17.961Z,9.10
2022-11-17T16:51:51.294Z,9.10
2022-11-17T16:54:20.045Z,9.10
2022-11-17T16:56:47.467Z,9.00
2022-11-17T16:59:15.350Z,9.00
2022-11-17T17:01:42.698Z,9.00
2022-11-17T17:04:12.336Z,9.00
2022-11-17T17:06:42.069Z,9.00
2022-11-17T17:09:11.159Z,9.00
2022-11-17T17:11:38.908Z,9.00
2022-11-17T17:14:08.614Z,9.00
2022-11-17T17:16:37.192Z,9.00
2022-11-17T17:19:08.054Z,9.00
2022-11-17T17:21:37.030Z,9.00
2022-11-17T17:24:05.290Z,9.10
2022-11-17T17:26:34.648Z,9.10
2022-11-17T17:29:03.998Z,9.10
2022-11-17T17:31:37.782Z,9.10
2022-11-17T17:34:06.901Z,9.10
2022-11-17T17:36:36.452Z,9.10
2022-11-17T17:39:03.975Z,9.10
2022-11-17T17:41:34.626Z,9.10
2022-11-17T17:44:07.125Z,9.00
2022-11-17T17:46:39.217Z,9.00
2022-11-17T17:49:07.148Z,9.00
2022-11-17T17:51:40.240Z,9.00
2022-11-17T17:54:13.714Z,9.00
2022-11-17T17:56:40.918Z,9.00
2022-11-17T17:59:08.175Z,9.00
2022-11-17T18:01:37.417Z,9.00
2022-11-17T18:04:05.317Z,9.00
2022-11-17T18:06:41.804Z,9.00
2022-11-17T18:09:10.847Z,9.00
2022-11-17T18:11:45.854Z,9.00
2022-11-17T18:14:13.634Z,9.00
2022-11-17T18:16:41.217Z,8.90
2022-11-17T18:19:09.387Z,8.90
2022-11-17T18:21:36.813Z,8.90
2022-11-17T18:24:04.826Z,8.90
2022-11-17T18:26:36.103Z,8.90
2022-11-17T18:29:08.705Z,8.90
2022-11-17T18:31:37.164Z,8.90
2022-11-17T18:34:23.332Z,8.80
2022-11-17T18:36:52.623Z,8.80
2022-11-17T18:39:21.283Z,8.80
2022-11-17T18:41:48.615Z,8.80
2022-11-17T18:44:19.314Z,8.70
2022-11-17T18:46:47.242Z,8.70
2022-11-17T18:49:14.762Z,8.70
2022-11-17T18:51:42.275Z,8.70
2022-11-17T18:54:12.357Z,8.70
2022-11-17T18:56:40.070Z,8.70
2022-11-17T18:59:11.727Z,8.70
2022-11-17T19:01:42.952Z,8.60
2022-11-17T19:04:13.760Z,8.60
2022-11-17T19:06:41.282Z,8.60
2022-11-17T19:09:08.703Z,8.60
2022-11-17T19:11:41.124Z,8.50
2022-11-17T19:14:10.322Z,8.50
2022-11-17T19:16:44.410Z,8.50
2022-11-17T19:19:13.479Z,8.40
2022-11-17T19:21:41.135Z,8.30
2022-11-17T19:24:09.061Z,8.20
2022-11-17T19:26:36.555Z,8.20
2022-11-17T19:29:16.089Z,8.10
2022-11-17T19:31:45.748Z,8.10
2022-11-17T19:34:13.229Z,8.10
2022-11-17T19:36:40.535Z,8.00
2022-11-17T19:39:07.661Z,8.00
2022-11-17T19:41:37.480Z,8.00
2022-11-17T19:44:07.984Z,8.00
2022-11-17T19:46:39.094Z,7.90
2022-11-17T19:49:07.660Z,7.90
2022-11-17T19:51:37.031Z,7.80
2022-11-17T19:54:07.847Z,7.80
2022-11-17T19:56:35.496Z,7.80
2022-11-17T19:59:03.449Z,7.80
2022-11-17T20:01:32.085Z,7.80
2022-11-17T20:04:00.999Z,7.80
2022-11-17T20:06:37.617Z,7.80
2022-11-17T20:09:14.158Z,7.70
2022-11-17T20:11:42.348Z,7.70
2022-11-17T20:14:09.603Z,7.70
2022-11-17T20:16:38.753Z,7.70
2022-11-17T20:19:06.284Z,7.60
2022-11-17T20:21:34.803Z,7.60
2022-11-17T20:24:02.253Z,7.60
2022-11-17T20:26:32.143Z,7.60
2022-11-17T20:29:00.515Z,7.60
2022-11-17T20:31:31.868Z,7.50
2022-11-17T20:34:00.800Z,7.50
2022-11-17T20:36:30.472Z,7.50
2022-11-17T20:39:01.710Z,7.50
2022-11-17T20:41:30.539Z,7.50
2022-11-17T20:43:59.948Z,7.40
2022-11-17T20:46:27.573Z,7.40
2022-11-17T20:48:54.933Z,7.40
2022-11-17T20:51:24.985Z,7.40
2022-11-17T20:53:52.506Z,7.40
2022-11-17T20:56:19.769Z,7.40
2022-11-17T20:58:47.330Z,7.30
2022-11-17T21:01:19.879Z,7.30
2022-11-17T21:03:48.009Z,7.30
2022-11-17T21:06:16.659Z,7.30
2022-11-17T21:08:45.785Z,7.30
2022-11-17T21:11:40.457Z,7.30
2022-11-17T21:14:11.173Z,7.20
2022-11-17T21:16:42.122Z,7.20
2022-11-17T21:19:09.464Z,7.30
2022-11-17T21:21:36.819Z,7.20
2022-11-17T21:24:04.576Z,7.20
2022-11-17T21:26:32.662Z,7.20
2022-11-17T21:29:16.932Z,7.20
2022-11-17T21:31:44.393Z,7.20
2022-11-17T21:34:16.583Z,7.20
2022-11-17T21:36:43.856Z,7.20
2022-11-17T21:39:16.709Z,7.20
2022-11-17T21:41:44.303Z,7.20
2022-11-17T21:44:13.511Z,7.20
2022-11-17T21:46:40.957Z,7.20
2022-11-17T21:49:08.368Z,7.20
2022-11-17T21:51:38.631Z,7.20
2022-11-17T21:54:08.929Z,7.20
2022-11-17T21:56:36.635Z,7.30
2022-11-17T21:59:07.280Z,7.30
2022-11-17T22:01:35.147Z,7.30
2022-11-17T22:04:02.855Z,7.30
2022-11-17T22:06:30.458Z,7.30
2022-11-17T22:08:59.503Z,7.30
2022-11-17T22:11:37.934Z,7.30
2022-11-17T22:14:13.991Z,7.30
2022-11-17T22:16:51.484Z,7.20
2022-11-17T22:19:20.512Z,7.20
2022-11-17T22:21:50.266Z,7.20
2022-11-17T22:24:17.905Z,7.20
2022-11-17T22:26:46.158Z,7.20
2022-11-17T22:29:19.967Z,7.20
2022-11-17T22:31:49.238Z,7.20
2022-11-17T22:34:17.303Z,7.20
2022-11-17T22:36:44.559Z,7.10
2022-11-17T22:39:11.727Z,7.20
2022-11-17T22:41:38.935Z,7.10
2022-11-17T22:44:06.530Z,7.10
2022-11-17T22:46:34.849Z,7.10
2022-11-17T22:49:02.103Z,7.00
2022-11-17T22:51:47.669Z,7.00
2022-11-17T22:54:14.795Z,7.00
2022-11-17T22:56:42.087Z,7.00
2022-11-17T22:59:09.501Z,6.90
2022-11-17T23:01:36.748Z,6.90
2022-11-17T23:04:04.814Z,6.90
2022-11-17T23:06:31.887Z,6.90
2022-11-17T23:08:59.252Z,6.90
2022-11-17T23:11:37.000Z,6.90
2022-11-17T23:14:07.857Z,6.80
2022-11-17T23:16:38.657Z,6.80
2022-11-17T23:19:06.789Z,6.80
2022-11-17T23:21:34.087Z,6.80
2022-11-17T23:24:01.375Z,6.80
2022-11-17T23:26:28.468Z,6.80
2022-11-17T23:28:55.586Z,6.80
2022-11-17T23:31:22.632Z,6.80
2022-11-17T23:33:49.712Z,6.80
2022-11-17T23:36:20.517Z,6.80
2022-11-17T23:38:50.421Z,6.80
2022-11-17T23:41:20.445Z,6.80
2022-11-17T23:43:51.959Z,6.80
2022-11-17T23:46:22.796Z,6.80
2022-11-17T23:48:49.986Z,6.90
2022-11-17T23:51:21.663Z,6.90
2022-11-17T23:53:49.598Z,6.90
2022-11-17T23:56:19.012Z,7.00
2022-11-17T23:58:46.545Z,7.00
